sensor_id;sensor_type;location;lat;lon;timestamp;P1;durP1;ratioP1;P2;durP2;ratioP2
46308;SDS011;32037;50.820;6.494;2023-04-29T00:02:20;4.33;;;3.33;;
46308;SDS011;32037;50.820;6.494;2023-04-29T00:04:48;4.43;;;3.90;;
46308;SDS011;32037;50.820;6.494;2023-04-29T00:07:17;6.67;;;3.67;;
46308;SDS011;32037;50.820;6.494;2023-04-29T00:09:45;5.30;;;4.47;;
46308;SDS011;32037;50.820;6.494;2023-04-29T00:12:15;7.07;;;4.03;;
46308;SDS011;32037;50.820;6.494;2023-04-29T00:14:43;4.70;;;3.50;;
46308;SDS011;32037;50.820;6.494;2023-04-29T00:17:12;4.20;;;3.80;;
46308;SDS011;32037;50.820;6.494;2023-04-29T00:19:40;6.10;;;3.80;;
46308;SDS011;32037;50.820;6.494;2023-04-29T00:22:09;4.70;;;4.03;;
46308;SDS011;32037;50.820;6.494;2023-04-29T00:24:37;6.03;;;4.20;;
46308;SDS011;32037;50.820;6.494;2023-04-29T00:27:05;5.70;;;3.73;;
46308;SDS011;32037;50.820;6.494;2023-04-29T00:29:35;4.57;;;4.00;;
46308;SDS011;32037;50.820;6.494;2023-04-29T00:32:04;5.73;;;4.90;;
46308;SDS011;32037;50.820;6.494;2023-04-29T00:34:32;4.43;;;3.80;;
46308;SDS011;32037;50.820;6.494;2023-04-29T00:37:00;4.93;;;4.43;;
46308;SDS011;32037;50.820;6.494;2023-04-29T00:39:30;5.07;;;4.57;;
46308;SDS011;32037;50.820;6.494;2023-04-29T00:41:58;5.53;;;4.20;;
46308;SDS011;32037;50.820;6.494;2023-04-29T00:44:29;6.57;;;4.67;;
46308;SDS011;32037;50.820;6.494;2023-04-29T00:46:58;5.63;;;4.00;;
46308;SDS011;32037;50.820;6.494;2023-04-29T00:49:27;4.77;;;4.00;;
46308;SDS011;32037;50.820;6.494;2023-04-29T00:51:55;4.47;;;3.80;;
46308;SDS011;32037;50.820;6.494;2023-04-29T00:54:26;5.77;;;5.00;;
46308;SDS011;32037;50.820;6.494;2023-04-29T00:56:54;4.97;;;3.90;;
46308;SDS011;32037;50.820;6.494;2023-04-29T00:59:24;4.90;;;3.50;;
46308;SDS011;32037;50.820;6.494;2023-04-29T01:01:59;4.90;;;3.33;;
46308;SDS011;32037;50.820;6.494;2023-04-29T01:04:30;4.70;;;3.30;;
46308;SDS011;32037;50.820;6.494;2023-04-29T01:07:18;4.60;;;3.43;;
46308;SDS011;32037;50.820;6.494;2023-04-29T01:10:09;5.60;;;4.40;;
46308;SDS011;32037;50.820;6.494;2023-04-29T01:12:44;3.53;;;3.23;;
46308;SDS011;32037;50.820;6.494;2023-04-29T01:15:16;6.13;;;4.03;;
46308;SDS011;32037;50.820;6.494;2023-04-29T01:17:54;5.30;;;4.23;;
46308;SDS011;32037;50.820;6.494;2023-04-29T01:20:26;4.40;;;3.43;;
46308;SDS011;32037;50.820;6.494;2023-04-29T01:22:55;5.87;;;4.30;;
46308;SDS011;32037;50.820;6.494;2023-04-29T01:25:26;7.90;;;4.23;;
46308;SDS011;32037;50.820;6.494;2023-04-29T01:28:17;5.33;;;3.93;;
46308;SDS011;32037;50.820;6.494;2023-04-29T01:30:55;5.80;;;4.30;;
46308;SDS011;32037;50.820;6.494;2023-04-29T01:33:28;6.50;;;4.60;;
46308;SDS011;32037;50.820;6.494;2023-04-29T01:36:10;7.83;;;5.77;;
46308;SDS011;32037;50.820;6.494;2023-04-29T01:38:44;5.60;;;4.23;;
46308;SDS011;32037;50.820;6.494;2023-04-29T01:41:22;4.83;;;4.20;;
46308;SDS011;32037;50.820;6.494;2023-04-29T01:44:07;6.70;;;5.83;;
46308;SDS011;32037;50.820;6.494;2023-04-29T01:46:42;7.30;;;5.27;;
46308;SDS011;32037;50.820;6.494;2023-04-29T01:49:11;6.10;;;4.77;;
46308;SDS011;32037;50.820;6.494;2023-04-29T01:51:39;7.23;;;4.80;;
46308;SDS011;32037;50.820;6.494;2023-04-29T01:54:08;7.67;;;5.00;;
46308;SDS011;32037;50.820;6.494;2023-04-29T01:56:38;6.40;;;4.63;;
46308;SDS011;32037;50.820;6.494;2023-04-29T01:59:15;5.80;;;4.20;;
46308;SDS011;32037;50.820;6.494;2023-04-29T02:02:05;6.63;;;5.47;;
46308;SDS011;32037;50.820;6.494;2023-04-29T02:04:41;5.80;;;4.40;;
46308;SDS011;32037;50.820;6.494;2023-04-29T02:07:10;5.80;;;5.10;;
46308;SDS011;32037;50.820;6.494;2023-04-29T02:09:38;7.40;;;5.90;;
46308;SDS011;32037;50.820;6.494;2023-04-29T02:12:11;7.00;;;5.43;;
46308;SDS011;32037;50.820;6.494;2023-04-29T02:14:39;6.17;;;4.70;;
46308;SDS011;32037;50.820;6.494;2023-04-29T02:17:08;5.77;;;4.77;;
46308;SDS011;32037;50.820;6.494;2023-04-29T02:19:36;6.10;;;5.20;;
46308;SDS011;32037;50.820;6.494;2023-04-29T02:22:05;6.07;;;4.77;;
46308;SDS011;32037;50.820;6.494;2023-04-29T02:24:33;9.97;;;6.27;;
46308;SDS011;32037;50.820;6.494;2023-04-29T02:27:02;6.70;;;5.10;;
46308;SDS011;32037;50.820;6.494;2023-04-29T02:29:32;5.50;;;4.77;;
46308;SDS011;32037;50.820;6.494;2023-04-29T02:32:01;6.50;;;5.20;;
46308;SDS011;32037;50.820;6.494;2023-04-29T02:34:29;5.90;;;4.97;;
46308;SDS011;32037;50.820;6.494;2023-04-29T02:36:59;10.00;;;6.73;;
46308;SDS011;32037;50.820;6.494;2023-04-29T02:39:28;4.93;;;4.03;;
46308;SDS011;32037;50.820;6.494;2023-04-29T02:41:56;5.03;;;4.03;;
46308;SDS011;32037;50.820;6.494;2023-04-29T02:44:24;5.83;;;4.30;;
46308;SDS011;32037;50.820;6.494;2023-04-29T02:46:54;6.50;;;5.73;;
46308;SDS011;32037;50.820;6.494;2023-04-29T02:49:23;6.60;;;4.43;;
46308;SDS011;32037;50.820;6.494;2023-04-29T02:51:52;5.80;;;5.10;;
46308;SDS011;32037;50.820;6.494;2023-04-29T02:54:21;6.60;;;4.60;;
46308;SDS011;32037;50.820;6.494;2023-04-29T02:56:50;5.83;;;4.23;;
46308;SDS011;32037;50.820;6.494;2023-04-29T02:59:18;7.10;;;5.50;;
46308;SDS011;32037;50.820;6.494;2023-04-29T03:01:47;8.50;;;5.63;;
46308;SDS011;32037;50.820;6.494;2023-04-29T03:04:17;7.07;;;6.27;;
46308;SDS011;32037;50.820;6.494;2023-04-29T03:06:47;7.00;;;6.30;;
46308;SDS011;32037;50.820;6.494;2023-04-29T03:09:16;8.37;;;6.87;;
46308;SDS011;32037;50.820;6.494;2023-04-29T03:11:45;7.80;;;6.60;;
46308;SDS011;32037;50.820;6.494;2023-04-29T03:14:13;8.10;;;6.83;;
46308;SDS011;32037;50.820;6.494;2023-04-29T03:16:42;8.70;;;7.30;;
46308;SDS011;32037;50.820;6.494;2023-04-29T03:19:10;11.10;;;7.90;;
46308;SDS011;32037;50.820;6.494;2023-04-29T03:21:40;10.00;;;8.87;;
46308;SDS011;32037;50.820;6.494;2023-04-29T03:24:08;10.30;;;6.90;;
46308;SDS011;32037;50.820;6.494;2023-04-29T03:26:37;8.50;;;7.60;;
46308;SDS011;32037;50.820;6.494;2023-04-29T03:29:05;8.20;;;6.20;;
46308;SDS011;32037;50.820;6.494;2023-04-29T03:31:34;7.57;;;6.80;;
46308;SDS011;32037;50.820;6.494;2023-04-29T03:34:02;8.37;;;6.97;;
46308;SDS011;32037;50.820;6.494;2023-04-29T03:36:35;8.40;;;7.03;;
46308;SDS011;32037;50.820;6.494;2023-04-29T03:39:08;10.67;;;7.80;;
46308;SDS011;32037;50.820;6.494;2023-04-29T03:41:37;10.47;;;7.60;;
46308;SDS011;32037;50.820;6.494;2023-04-29T03:44:07;9.50;;;7.70;;
46308;SDS011;32037;50.820;6.494;2023-04-29T03:46:35;11.70;;;8.20;;
46308;SDS011;32037;50.820;6.494;2023-04-29T03:49:04;11.17;;;7.30;;
46308;SDS011;32037;50.820;6.494;2023-04-29T03:51:32;9.80;;;8.47;;
46308;SDS011;32037;50.820;6.494;2023-04-29T03:54:11;12.07;;;8.50;;
46308;SDS011;32037;50.820;6.494;2023-04-29T03:56:40;12.47;;;9.27;;
46308;SDS011;32037;50.820;6.494;2023-04-29T03:59:09;11.27;;;9.40;;
46308;SDS011;32037;50.820;6.494;2023-04-29T04:01:38;10.00;;;8.97;;
46308;SDS011;32037;50.820;6.494;2023-04-29T04:04:07;16.23;;;10.63;;
46308;SDS011;32037;50.820;6.494;2023-04-29T04:06:40;13.93;;;10.70;;
46308;SDS011;32037;50.820;6.494;2023-04-29T04:09:12;15.00;;;9.97;;
46308;SDS011;32037;50.820;6.494;2023-04-29T04:11:41;14.17;;;9.80;;
46308;SDS011;32037;50.820;6.494;2023-04-29T04:14:10;13.70;;;10.60;;
46308;SDS011;32037;50.820;6.494;2023-04-29T04:16:38;14.83;;;10.80;;
46308;SDS011;32037;50.820;6.494;2023-04-29T04:19:07;17.90;;;11.47;;
46308;SDS011;32037;50.820;6.494;2023-04-29T04:21:39;16.77;;;10.80;;
46308;SDS011;32037;50.820;6.494;2023-04-29T04:24:09;16.57;;;10.57;;
46308;SDS011;32037;50.820;6.494;2023-04-29T04:26:39;13.93;;;10.43;;
46308;SDS011;32037;50.820;6.494;2023-04-29T04:29:21;15.93;;;11.27;;
46308;SDS011;32037;50.820;6.494;2023-04-29T04:32:13;16.70;;;12.13;;
46308;SDS011;32037;50.820;6.494;2023-04-29T04:34:41;17.60;;;12.67;;
46308;SDS011;32037;50.820;6.494;2023-04-29T04:37:09;16.80;;;11.47;;
46308;SDS011;32037;50.820;6.494;2023-04-29T04:39:39;22.57;;;13.70;;
46308;SDS011;32037;50.820;6.494;2023-04-29T04:42:15;17.73;;;12.60;;
46308;SDS011;32037;50.820;6.494;2023-04-29T04:44:45;18.50;;;12.43;;
46308;SDS011;32037;50.820;6.494;2023-04-29T04:47:25;17.03;;;12.60;;
46308;SDS011;32037;50.820;6.494;2023-04-29T04:49:59;17.40;;;10.83;;
46308;SDS011;32037;50.820;6.494;2023-04-29T04:52:30;14.97;;;11.30;;
46308;SDS011;32037;50.820;6.494;2023-04-29T04:55:11;17.40;;;11.50;;
46308;SDS011;32037;50.820;6.494;2023-04-29T04:57:45;13.77;;;10.20;;
46308;SDS011;32037;50.820;6.494;2023-04-29T05:00:14;16.47;;;11.17;;
46308;SDS011;32037;50.820;6.494;2023-04-29T05:02:43;18.40;;;11.57;;
46308;SDS011;32037;50.820;6.494;2023-04-29T05:05:12;13.27;;;11.43;;
46308;SDS011;32037;50.820;6.494;2023-04-29T05:07:42;14.07;;;10.97;;
46308;SDS011;32037;50.820;6.494;2023-04-29T05:10:10;14.47;;;11.43;;
46308;SDS011;32037;50.820;6.494;2023-04-29T05:12:50;16.87;;;12.87;;
46308;SDS011;32037;50.820;6.494;2023-04-29T05:15:19;15.37;;;11.50;;
46308;SDS011;32037;50.820;6.494;2023-04-29T05:17:50;17.00;;;11.43;;
46308;SDS011;32037;50.820;6.494;2023-04-29T05:20:19;13.50;;;10.80;;
46308;SDS011;32037;50.820;6.494;2023-04-29T05:22:47;12.93;;;10.07;;
46308;SDS011;32037;50.820;6.494;2023-04-29T05:25:16;15.90;;;11.27;;
46308;SDS011;32037;50.820;6.494;2023-04-29T05:27:44;16.07;;;10.07;;
46308;SDS011;32037;50.820;6.494;2023-04-29T05:30:17;11.53;;;9.63;;
46308;SDS011;32037;50.820;6.494;2023-04-29T05:32:46;12.80;;;10.57;;
46308;SDS011;32037;50.820;6.494;2023-04-29T05:35:17;12.93;;;10.33;;
46308;SDS011;32037;50.820;6.494;2023-04-29T05:37:45;12.70;;;10.23;;
46308;SDS011;32037;50.820;6.494;2023-04-29T05:40:24;13.10;;;8.53;;
46308;SDS011;32037;50.820;6.494;2023-04-29T05:43:04;11.37;;;9.23;;
46308;SDS011;32037;50.820;6.494;2023-04-29T05:45:34;13.43;;;9.87;;
46308;SDS011;32037;50.820;6.494;2023-04-29T05:48:03;12.23;;;9.83;;
46308;SDS011;32037;50.820;6.494;2023-04-29T05:50:33;10.37;;;8.67;;
46308;SDS011;32037;50.820;6.494;2023-04-29T05:53:01;10.87;;;8.50;;
46308;SDS011;32037;50.820;6.494;2023-04-29T05:55:30;12.73;;;10.07;;
46308;SDS011;32037;50.820;6.494;2023-04-29T05:57:59;13.73;;;9.83;;
46308;SDS011;32037;50.820;6.494;2023-04-29T06:00:27;12.23;;;9.53;;
46308;SDS011;32037;50.820;6.494;2023-04-29T06:03:06;12.07;;;9.40;;
46308;SDS011;32037;50.820;6.494;2023-04-29T06:05:35;10.50;;;8.40;;
46308;SDS011;32037;50.820;6.494;2023-04-29T06:08:16;11.33;;;8.80;;
46308;SDS011;32037;50.820;6.494;2023-04-29T06:10:49;11.47;;;8.10;;
46308;SDS011;32037;50.820;6.494;2023-04-29T06:13:18;10.13;;;8.60;;
46308;SDS011;32037;50.820;6.494;2023-04-29T06:15:47;10.47;;;7.83;;
46308;SDS011;32037;50.820;6.494;2023-04-29T06:18:18;8.47;;;7.13;;
46308;SDS011;32037;50.820;6.494;2023-04-29T06:20:47;8.23;;;7.10;;
46308;SDS011;32037;50.820;6.494;2023-04-29T06:23:15;9.07;;;6.83;;
46308;SDS011;32037;50.820;6.494;2023-04-29T06:25:43;9.07;;;7.47;;
46308;SDS011;32037;50.820;6.494;2023-04-29T06:28:12;9.90;;;7.97;;
46308;SDS011;32037;50.820;6.494;2023-04-29T06:30:41;9.67;;;8.07;;
46308;SDS011;32037;50.820;6.494;2023-04-29T06:33:12;9.10;;;7.53;;
46308;SDS011;32037;50.820;6.494;2023-04-29T06:35:42;9.13;;;7.00;;
46308;SDS011;32037;50.820;6.494;2023-04-29T06:38:40;7.77;;;6.67;;
46308;SDS011;32037;50.820;6.494;2023-04-29T06:41:27;8.13;;;7.30;;
46308;SDS011;32037;50.820;6.494;2023-04-29T06:44:15;7.43;;;6.70;;
46308;SDS011;32037;50.820;6.494;2023-04-29T06:46:51;9.47;;;7.53;;
46308;SDS011;32037;50.820;6.494;2023-04-29T06:49:41;10.67;;;7.77;;
46308;SDS011;32037;50.820;6.494;2023-04-29T06:52:11;9.20;;;7.10;;
46308;SDS011;32037;50.820;6.494;2023-04-29T06:54:41;8.47;;;6.57;;
46308;SDS011;32037;50.820;6.494;2023-04-29T06:57:10;7.53;;;6.17;;
46308;SDS011;32037;50.820;6.494;2023-04-29T06:59:38;8.03;;;7.13;;
46308;SDS011;32037;50.820;6.494;2023-04-29T07:02:07;8.87;;;7.10;;
46308;SDS011;32037;50.820;6.494;2023-04-29T07:04:36;9.13;;;6.47;;
46308;SDS011;32037;50.820;6.494;2023-04-29T07:07:04;7.63;;;6.27;;
46308;SDS011;32037;50.820;6.494;2023-04-29T07:09:34;7.17;;;6.37;;
46308;SDS011;32037;50.820;6.494;2023-04-29T07:12:03;8.00;;;6.33;;
46308;SDS011;32037;50.820;6.494;2023-04-29T07:14:32;9.27;;;6.73;;
46308;SDS011;32037;50.820;6.494;2023-04-29T07:17:03;8.63;;;6.80;;
46308;SDS011;32037;50.820;6.494;2023-04-29T07:19:32;7.20;;;5.93;;
46308;SDS011;32037;50.820;6.494;2023-04-29T07:22:00;7.50;;;6.33;;
46308;SDS011;32037;50.820;6.494;2023-04-29T07:24:30;6.73;;;5.87;;
46308;SDS011;32037;50.820;6.494;2023-04-29T07:26:59;8.70;;;6.90;;
46308;SDS011;32037;50.820;6.494;2023-04-29T07:29:28;6.10;;;5.03;;
46308;SDS011;32037;50.820;6.494;2023-04-29T07:31:58;7.83;;;6.27;;
46308;SDS011;32037;50.820;6.494;2023-04-29T07:34:26;8.47;;;6.13;;
46308;SDS011;32037;50.820;6.494;2023-04-29T07:36:55;8.00;;;7.20;;
46308;SDS011;32037;50.820;6.494;2023-04-29T07:39:24;8.00;;;6.60;;
46308;SDS011;32037;50.820;6.494;2023-04-29T07:41:54;6.87;;;6.10;;
46308;SDS011;32037;50.820;6.494;2023-04-29T07:44:24;7.43;;;5.33;;
46308;SDS011;32037;50.820;6.494;2023-04-29T07:46:53;6.67;;;5.57;;
46308;SDS011;32037;50.820;6.494;2023-04-29T07:49:21;6.50;;;5.80;;
46308;SDS011;32037;50.820;6.494;2023-04-29T07:51:51;6.40;;;5.57;;
46308;SDS011;32037;50.820;6.494;2023-04-29T07:54:20;7.40;;;6.00;;
46308;SDS011;32037;50.820;6.494;2023-04-29T07:56:49;5.90;;;5.20;;
46308;SDS011;32037;50.820;6.494;2023-04-29T07:59:19;7.87;;;6.27;;
46308;SDS011;32037;50.820;6.494;2023-04-29T08:01:50;6.03;;;5.30;;
46308;SDS011;32037;50.820;6.494;2023-04-29T08:04:19;6.63;;;5.60;;
46308;SDS011;32037;50.820;6.494;2023-04-29T08:06:57;7.53;;;5.90;;
46308;SDS011;32037;50.820;6.494;2023-04-29T08:09:25;6.80;;;5.43;;
46308;SDS011;32037;50.820;6.494;2023-04-29T08:11:54;5.73;;;5.10;;
46308;SDS011;32037;50.820;6.494;2023-04-29T08:14:22;6.07;;;5.43;;
46308;SDS011;32037;50.820;6.494;2023-04-29T08:16:54;5.83;;;5.23;;
46308;SDS011;32037;50.820;6.494;2023-04-29T08:19:23;6.57;;;5.53;;
46308;SDS011;32037;50.820;6.494;2023-04-29T08:21:52;8.27;;;5.60;;
46308;SDS011;32037;50.820;6.494;2023-04-29T08:24:20;6.00;;;5.40;;
46308;SDS011;32037;50.820;6.494;2023-04-29T08:26:49;6.20;;;5.60;;
46308;SDS011;32037;50.820;6.494;2023-04-29T08:29:17;5.87;;;5.27;;
46308;SDS011;32037;50.820;6.494;2023-04-29T08:31:46;6.40;;;5.07;;
46308;SDS011;32037;50.820;6.494;2023-04-29T08:34:17;6.77;;;4.97;;
46308;SDS011;32037;50.820;6.494;2023-04-29T08:36:45;6.60;;;5.10;;
46308;SDS011;32037;50.820;6.494;2023-04-29T08:39:14;6.17;;;4.90;;
46308;SDS011;32037;50.820;6.494;2023-04-29T08:41:43;6.63;;;5.20;;
46308;SDS011;32037;50.820;6.494;2023-04-29T08:44:16;4.80;;;4.33;;
46308;SDS011;32037;50.820;6.494;2023-04-29T08:46:45;6.30;;;5.63;;
46308;SDS011;32037;50.820;6.494;2023-04-29T08:49:16;11.13;;;9.20;;
46308;SDS011;32037;50.820;6.494;2023-04-29T08:51:46;9.47;;;7.77;;
46308;SDS011;32037;50.820;6.494;2023-04-29T08:54:17;11.70;;;8.40;;
46308;SDS011;32037;50.820;6.494;2023-04-29T08:56:45;9.77;;;7.20;;
46308;SDS011;32037;50.820;6.494;2023-04-29T08:59:14;8.80;;;7.37;;
46308;SDS011;32037;50.820;6.494;2023-04-29T09:01:43;10.43;;;8.40;;
46308;SDS011;32037;50.820;6.494;2023-04-29T09:04:19;9.90;;;7.97;;
46308;SDS011;32037;50.820;6.494;2023-04-29T09:06:56;8.83;;;6.90;;
46308;SDS011;32037;50.820;6.494;2023-04-29T09:09:26;11.10;;;8.37;;
46308;SDS011;32037;50.820;6.494;2023-04-29T09:11:55;8.17;;;6.80;;
46308;SDS011;32037;50.820;6.494;2023-04-29T09:14:24;8.70;;;7.20;;
46308;SDS011;32037;50.820;6.494;2023-04-29T09:16:53;8.53;;;6.47;;
46308;SDS011;32037;50.820;6.494;2023-04-29T09:19:29;7.43;;;5.97;;
46308;SDS011;32037;50.820;6.494;2023-04-29T09:21:59;9.10;;;6.13;;
46308;SDS011;32037;50.820;6.494;2023-04-29T09:24:28;6.53;;;5.87;;
46308;SDS011;32037;50.820;6.494;2023-04-29T09:26:58;6.93;;;6.00;;
46308;SDS011;32037;50.820;6.494;2023-04-29T09:29:27;6.50;;;5.23;;
46308;SDS011;32037;50.820;6.494;2023-04-29T09:31:57;5.80;;;5.17;;
46308;SDS011;32037;50.820;6.494;2023-04-29T09:34:31;6.73;;;4.63;;
46308;SDS011;32037;50.820;6.494;2023-04-29T09:37:01;6.97;;;5.43;;
46308;SDS011;32037;50.820;6.494;2023-04-29T09:39:36;6.70;;;5.03;;
46308;SDS011;32037;50.820;6.494;2023-04-29T09:42:06;7.40;;;5.30;;
46308;SDS011;32037;50.820;6.494;2023-04-29T09:44:35;6.87;;;4.70;;
46308;SDS011;32037;50.820;6.494;2023-04-29T09:47:08;5.20;;;4.17;;
46308;SDS011;32037;50.820;6.494;2023-04-29T09:49:40;6.13;;;5.10;;
46308;SDS011;32037;50.820;6.494;2023-04-29T09:52:11;6.57;;;4.87;;
46308;SDS011;32037;50.820;6.494;2023-04-29T09:54:42;6.60;;;4.67;;
46308;SDS011;32037;50.820;6.494;2023-04-29T09:57:11;5.67;;;4.90;;
46308;SDS011;32037;50.820;6.494;2023-04-29T09:59:41;8.30;;;5.10;;
46308;SDS011;32037;50.820;6.494;2023-04-29T10:02:12;7.10;;;5.10;;
46308;SDS011;32037;50.820;6.494;2023-04-29T10:04:45;5.40;;;4.90;;
46308;SDS011;32037;50.820;6.494;2023-04-29T10:07:15;5.67;;;4.70;;
46308;SDS011;32037;50.820;6.494;2023-04-29T10:09:45;7.20;;;5.40;;
46308;SDS011;32037;50.820;6.494;2023-04-29T10:12:15;7.63;;;5.60;;
46308;SDS011;32037;50.820;6.494;2023-04-29T10:14:46;5.73;;;5.10;;
46308;SDS011;32037;50.820;6.494;2023-04-29T10:17:23;6.13;;;4.90;;
46308;SDS011;32037;50.820;6.494;2023-04-29T10:20:01;5.80;;;5.03;;
46308;SDS011;32037;50.820;6.494;2023-04-29T10:22:34;6.17;;;5.00;;
46308;SDS011;32037;50.820;6.494;2023-04-29T10:25:12;5.30;;;4.40;;
46308;SDS011;32037;50.820;6.494;2023-04-29T10:27:42;4.87;;;3.70;;
46308;SDS011;32037;50.820;6.494;2023-04-29T10:30:12;4.90;;;4.00;;
46308;SDS011;32037;50.820;6.494;2023-04-29T10:32:42;5.60;;;4.93;;
46308;SDS011;32037;50.820;6.494;2023-04-29T10:35:19;6.00;;;5.40;;
46308;SDS011;32037;50.820;6.494;2023-04-29T10:37:51;6.50;;;4.83;;
46308;SDS011;32037;50.820;6.494;2023-04-29T10:40:22;4.83;;;3.80;;
46308;SDS011;32037;50.820;6.494;2023-04-29T10:42:56;5.10;;;4.37;;
46308;SDS011;32037;50.820;6.494;2023-04-29T10:45:25;4.53;;;3.77;;
46308;SDS011;32037;50.820;6.494;2023-04-29T10:48:07;5.83;;;4.20;;
46308;SDS011;32037;50.820;6.494;2023-04-29T10:50:58;5.13;;;4.40;;
46308;SDS011;32037;50.820;6.494;2023-04-29T10:53:29;6.33;;;4.53;;
46308;SDS011;32037;50.820;6.494;2023-04-29T10:55:58;5.80;;;4.30;;
46308;SDS011;32037;50.820;6.494;2023-04-29T10:58:33;4.40;;;3.57;;
46308;SDS011;32037;50.820;6.494;2023-04-29T11:01:02;4.67;;;4.20;;
46308;SDS011;32037;50.820;6.494;2023-04-29T11:03:50;6.20;;;4.50;;
46308;SDS011;32037;50.820;6.494;2023-04-29T11:06:38;5.70;;;4.83;;
46308;SDS011;32037;50.820;6.494;2023-04-29T11:09:09;3.83;;;3.40;;
46308;SDS011;32037;50.820;6.494;2023-04-29T11:11:40;6.33;;;4.00;;
46308;SDS011;32037;50.820;6.494;2023-04-29T11:14:33;6.50;;;4.00;;
46308;SDS011;32037;50.820;6.494;2023-04-29T11:17:07;5.40;;;3.93;;
46308;SDS011;32037;50.820;6.494;2023-04-29T11:19:39;5.13;;;4.07;;
46308;SDS011;32037;50.820;6.494;2023-04-29T11:22:12;3.63;;;3.30;;
46308;SDS011;32037;50.820;6.494;2023-04-29T11:24:52;3.97;;;3.57;;
46308;SDS011;32037;50.820;6.494;2023-04-29T11:27:23;6.70;;;4.20;;
46308;SDS011;32037;50.820;6.494;2023-04-29T11:29:53;5.10;;;3.43;;
46308;SDS011;32037;50.820;6.494;2023-04-29T11:32:24;5.30;;;3.97;;
46308;SDS011;32037;50.820;6.494;2023-04-29T11:34:54;5.97;;;4.17;;
46308;SDS011;32037;50.820;6.494;2023-04-29T11:37:25;4.53;;;3.57;;
46308;SDS011;32037;50.820;6.494;2023-04-29T11:39:57;4.93;;;3.53;;
46308;SDS011;32037;50.820;6.494;2023-04-29T11:42:26;4.23;;;3.50;;
46308;SDS011;32037;50.820;6.494;2023-04-29T11:44:55;4.10;;;3.40;;
46308;SDS011;32037;50.820;6.494;2023-04-29T11:47:26;4.63;;;3.70;;
46308;SDS011;32037;50.820;6.494;2023-04-29T11:50:02;4.03;;;3.63;;
46308;SDS011;32037;50.820;6.494;2023-04-29T11:52:35;6.03;;;4.10;;
46308;SDS011;32037;50.820;6.494;2023-04-29T11:55:07;5.03;;;4.03;;
46308;SDS011;32037;50.820;6.494;2023-04-29T11:57:36;4.87;;;4.13;;
46308;SDS011;32037;50.820;6.494;2023-04-29T12:00:07;4.60;;;3.57;;
46308;SDS011;32037;50.820;6.494;2023-04-29T12:02:37;4.67;;;3.90;;
46308;SDS011;32037;50.820;6.494;2023-04-29T12:05:06;4.80;;;3.50;;
46308;SDS011;32037;50.820;6.494;2023-04-29T12:07:37;6.17;;;4.30;;
46308;SDS011;32037;50.820;6.494;2023-04-29T12:10:07;4.73;;;3.47;;
46308;SDS011;32037;50.820;6.494;2023-04-29T12:12:36;4.63;;;3.90;;
46308;SDS011;32037;50.820;6.494;2023-04-29T12:15:08;5.70;;;4.27;;
46308;SDS011;32037;50.820;6.494;2023-04-29T12:17:37;4.83;;;4.43;;
46308;SDS011;32037;50.820;6.494;2023-04-29T12:20:06;5.03;;;4.53;;
46308;SDS011;32037;50.820;6.494;2023-04-29T12:22:39;7.03;;;4.60;;
46308;SDS011;32037;50.820;6.494;2023-04-29T12:25:09;4.60;;;4.00;;
46308;SDS011;32037;50.820;6.494;2023-04-29T12:27:39;5.23;;;4.60;;
46308;SDS011;32037;50.820;6.494;2023-04-29T12:30:09;5.67;;;4.70;;
46308;SDS011;32037;50.820;6.494;2023-04-29T12:32:38;4.50;;;3.97;;
46308;SDS011;32037;50.820;6.494;2023-04-29T12:35:13;5.07;;;4.00;;
46308;SDS011;32037;50.820;6.494;2023-04-29T12:37:48;6.53;;;5.27;;
46308;SDS011;32037;50.820;6.494;2023-04-29T12:40:17;5.23;;;4.73;;
46308;SDS011;32037;50.820;6.494;2023-04-29T12:42:46;5.40;;;4.43;;
46308;SDS011;32037;50.820;6.494;2023-04-29T12:45:25;4.97;;;4.30;;
46308;SDS011;32037;50.820;6.494;2023-04-29T12:47:57;4.80;;;4.00;;
46308;SDS011;32037;50.820;6.494;2023-04-29T12:50:28;6.10;;;5.50;;
46308;SDS011;32037;50.820;6.494;2023-04-29T12:53:00;6.53;;;5.67;;
46308;SDS011;32037;50.820;6.494;2023-04-29T12:55:30;6.00;;;4.77;;
46308;SDS011;32037;50.820;6.494;2023-04-29T12:58:01;5.10;;;4.60;;
46308;SDS011;32037;50.820;6.494;2023-04-29T13:00:30;6.70;;;4.73;;
46308;SDS011;32037;50.820;6.494;2023-04-29T13:03:00;6.57;;;5.17;;
46308;SDS011;32037;50.820;6.494;2023-04-29T13:05:30;6.20;;;5.00;;
46308;SDS011;32037;50.820;6.494;2023-04-29T13:08:00;5.83;;;4.50;;
46308;SDS011;32037;50.820;6.494;2023-04-29T13:10:31;5.80;;;4.97;;
46308;SDS011;32037;50.820;6.494;2023-04-29T13:13:00;7.27;;;4.93;;
46308;SDS011;32037;50.820;6.494;2023-04-29T13:15:29;5.00;;;4.37;;
46308;SDS011;32037;50.820;6.494;2023-04-29T13:17:58;6.40;;;4.90;;
46308;SDS011;32037;50.820;6.494;2023-04-29T13:20:27;8.27;;;5.07;;
46308;SDS011;32037;50.820;6.494;2023-04-29T13:22:56;6.73;;;5.20;;
46308;SDS011;32037;50.820;6.494;2023-04-29T13:25:29;5.37;;;4.30;;
46308;SDS011;32037;50.820;6.494;2023-04-29T13:27:57;7.33;;;5.50;;
46308;SDS011;32037;50.820;6.494;2023-04-29T13:30:26;6.77;;;5.60;;
46308;SDS011;32037;50.820;6.494;2023-04-29T13:32:55;9.70;;;5.30;;
46308;SDS011;32037;50.820;6.494;2023-04-29T13:35:35;6.70;;;5.30;;
46308;SDS011;32037;50.820;6.494;2023-04-29T13:38:06;6.30;;;4.90;;
46308;SDS011;32037;50.820;6.494;2023-04-29T13:40:36;5.57;;;4.50;;
46308;SDS011;32037;50.820;6.494;2023-04-29T13:43:12;8.00;;;5.63;;
46308;SDS011;32037;50.820;6.494;2023-04-29T13:45:57;5.57;;;4.50;;
46308;SDS011;32037;50.820;6.494;2023-04-29T13:48:26;7.00;;;6.20;;
46308;SDS011;32037;50.820;6.494;2023-04-29T13:51:15;5.80;;;4.83;;
46308;SDS011;32037;50.820;6.494;2023-04-29T13:53:46;5.23;;;4.37;;
46308;SDS011;32037;50.820;6.494;2023-04-29T13:56:19;7.40;;;5.03;;
46308;SDS011;32037;50.820;6.494;2023-04-29T13:58:51;6.70;;;6.00;;
46308;SDS011;32037;50.820;6.494;2023-04-29T14:01:22;8.20;;;5.80;;
46308;SDS011;32037;50.820;6.494;2023-04-29T14:04:11;6.90;;;5.73;;
46308;SDS011;32037;50.820;6.494;2023-04-29T14:06:41;5.80;;;5.13;;
46308;SDS011;32037;50.820;6.494;2023-04-29T14:09:10;5.60;;;4.67;;
46308;SDS011;32037;50.820;6.494;2023-04-29T14:11:40;6.73;;;5.33;;
46308;SDS011;32037;50.820;6.494;2023-04-29T14:14:09;5.83;;;5.23;;
46308;SDS011;32037;50.820;6.494;2023-04-29T14:16:37;15.90;;;11.60;;
46308;SDS011;32037;50.820;6.494;2023-04-29T14:19:06;5.23;;;4.73;;
46308;SDS011;32037;50.820;6.494;2023-04-29T14:21:35;6.60;;;5.40;;
46308;SDS011;32037;50.820;6.494;2023-04-29T14:24:03;10.37;;;8.80;;
46308;SDS011;32037;50.820;6.494;2023-04-29T14:26:32;5.73;;;4.90;;
46308;SDS011;32037;50.820;6.494;2023-04-29T14:29:03;6.57;;;4.90;;
46308;SDS011;32037;50.820;6.494;2023-04-29T14:31:33;6.93;;;5.67;;
46308;SDS011;32037;50.820;6.494;2023-04-29T14:34:03;5.33;;;4.83;;
46308;SDS011;32037;50.820;6.494;2023-04-29T14:36:32;7.27;;;6.57;;
46308;SDS011;32037;50.820;6.494;2023-04-29T14:39:01;6.73;;;5.40;;
46308;SDS011;32037;50.820;6.494;2023-04-29T14:41:30;5.40;;;4.70;;
46308;SDS011;32037;50.820;6.494;2023-04-29T14:43:58;5.77;;;5.20;;
46308;SDS011;32037;50.820;6.494;2023-04-29T14:46:28;8.53;;;6.20;;
46308;SDS011;32037;50.820;6.494;2023-04-29T14:48:58;5.27;;;4.77;;
46308;SDS011;32037;50.820;6.494;2023-04-29T14:51:26;6.13;;;5.53;;
46308;SDS011;32037;50.820;6.494;2023-04-29T14:53:55;6.00;;;5.20;;
46308;SDS011;32037;50.820;6.494;2023-04-29T14:56:24;5.30;;;4.60;;
46308;SDS011;32037;50.820;6.494;2023-04-29T14:58:52;5.70;;;4.83;;
46308;SDS011;32037;50.820;6.494;2023-04-29T15:01:21;5.90;;;4.90;;
46308;SDS011;32037;50.820;6.494;2023-04-29T15:03:51;5.37;;;4.50;;
46308;SDS011;32037;50.820;6.494;2023-04-29T15:06:20;7.27;;;6.27;;
46308;SDS011;32037;50.820;6.494;2023-04-29T15:08:48;5.37;;;4.83;;